x

Capel Curig Saws (03305) Weather Station

8:00am - Mon 27th Feb 2017 All times are GMT.

  • Wind
    13mph
  • Air Temp 37°f
  • Sea Pressure 986mb
  • Capel Curig Saws
  • Capel Curig Saws

More Historic Weather Station data

Upgrade to MSW Pro to gain access to the past 30 days of data for over 8000 Wavebouys and Weather Stations around the globe.

Join Pro

Comparision Forecast

View Surf forecast
   
Mon 02/27 8:00am 13
mph
986mb 37f
7:00am 10
mph
988mb 36f
6:00am 19
mph
989mb 38f
5:00am 16
mph
989mb 38f
4:00am 14
mph
991mb 38f
3:00am 21 33 mph 992mb 38f
2:00am 16 31 mph 993mb 38f
1:00am 17 29 mph 993mb 38f
12:00am 26 45 mph 994mb 40f
Sun 02/26 11:00pm 29 45 mph 994mb 43f
10:00pm 21 32 mph 995mb 42f
9:00pm 22 43 mph 995mb 42f
8:00pm 24 36 mph 995mb 44f
7:00pm 26 44 mph 995mb 44f
6:00pm 25 62 mph 994mb 45f
5:00pm 39 72 mph 993mb 48f
4:00pm 53 71 mph 993mb 47f
3:00pm 48 69 mph 993mb 47f
2:00pm 51 75 mph 995mb 47f
1:00pm 45 69 mph 996mb 47f
12:00pm 46 72 mph 998mb 47f
11:00am 45 68 mph 999mb 47f
10:00am 33 60 mph 1000mb 46f
9:00am 47 56 mph 1000mb 46f
8:00am 36 49 mph 1001mb 44f
7:00am 37 48 mph 1001mb 44f
6:00am 31 44 mph 1002mb 44f
5:00am 29 43 mph 1002mb 44f
4:00am 26 41 mph 1003mb 44f
3:00am 29 46 mph 1003mb 45f
2:00am 21 30 mph 1003mb 45f
1:00am 15
mph
1003mb 46f
12:00am 13
mph
1003mb 47f
Sat 02/25 11:00pm 23 31 mph 1003mb 47f
10:00pm 25 38 mph 1002mb 48f
9:00pm 25 36 mph 1002mb 48f
8:00pm 24 38 mph 1003mb 47f
7:00pm 32 48 mph 1003mb 47f
6:00pm 33 48 mph 1002mb 46f
5:00pm 29 38 mph 1003mb 46f
4:00pm 24 39 mph 1004mb 47f
3:00pm 28 38 mph 1004mb 46f
2:00pm 31 44 mph 1004mb 46f
1:00pm 28 38 mph 1005mb 46f
12:00pm 29 44 mph 1005mb 46f
11:00am 33 47 mph 1005mb 45f
10:00am 32 55 mph 1006mb 44f
9:00am 39 60 mph 1006mb 45f
8:00am 45 61 mph 1005mb 44f
7:00am 41 55 mph 1006mb 44f
6:00am 41 61 mph 1006mb 44f
5:00am 43 60 mph 1007mb 44f
4:00am 44 63 mph 1008mb 44f
3:00am 46 67 mph 1008mb 44f
2:00am 48 62 mph 1010mb 44f
1:00am 34 56 mph 1011mb 44f
12:00am 47 64 mph 1011mb 44f
Fri 02/24 11:00pm 40 59 mph 1012mb 44f
10:00pm 34 46 mph 1013mb 43f
9:00pm 39 47 mph 1013mb 43f
8:00pm 30 46 mph 1014mb 43f
7:00pm 28 41 mph 1014mb 42f
6:00pm 25 32 mph 1016mb 41f
5:00pm 21
mph
1016mb 42f
4:00pm 16
mph
1017mb 43f
3:00pm 18
mph
1017mb 44f
2:00pm 15
mph
1017mb 43f
1:00pm 13
mph
1017mb 44f
12:00pm 17
mph
1017mb 44f
11:00am 16
mph
1017mb 44f
10:00am 13
mph
1017mb 41f
9:00am 10
mph
1016mb 40f
8:00am 9
mph
1016mb 39f
7:00am 11 31 mph 1015mb 39f
6:00am 11 29 mph 1014mb 39f
5:00am 15 37 mph 1013mb 39f
4:00am 19 38 mph 1013mb 39f
3:00am 17 31 mph 1012mb 39f
2:00am 17 37 mph 1011mb 39f
1:00am 21 36 mph 1011mb 40f
12:00am 17 38 mph 1010mb 40f
Thu 02/23 11:00pm 21 45 mph - 40f
10:00pm 10 36 mph 1008mb 40f
9:00pm 18 45 mph 1007mb 41f
8:00pm 24 47 mph 1006mb 41f
7:00pm 25 49 mph 1005mb 41f
6:00pm 28 59 mph 1003mb 41f
5:00pm 19 45 mph 1002mb 41f
4:00pm 26 54 mph 1000mb 42f
3:00pm 19 49 mph 997mb 42f
2:00pm 21 66 mph 996mb 42f
1:00pm 26 60 mph - 42f
12:00pm 33 71 mph - 42f